createdAt,value
2019-01-23T00:01:00.301Z,80.88
2019-01-23T00:03:29.204Z,81.19
2019-01-23T00:05:58.138Z,81.17
2019-01-23T00:08:27.081Z,80.84
2019-01-23T00:10:56.045Z,80.52
2019-01-23T00:13:24.977Z,80.82
2019-01-23T00:15:53.899Z,79.58
2019-01-23T00:18:22.845Z,80.35
2019-01-23T00:20:51.779Z,80.58
2019-01-23T00:23:20.708Z,80.25
2019-01-23T00:25:49.619Z,80.54
2019-01-23T00:28:18.542Z,80.93
2019-01-23T00:30:47.478Z,80.62
2019-01-23T00:33:16.383Z,80.51
2019-01-23T00:35:45.327Z,80.61
2019-01-23T00:38:14.234Z,79.44
2019-01-23T00:40:43.162Z,80.14
2019-01-23T00:43:12.082Z,80.02
2019-01-23T00:45:41.003Z,80.06
2019-01-23T00:48:09.950Z,80.08
2019-01-23T00:50:38.893Z,80.12
2019-01-23T00:53:07.878Z,79.52
2019-01-23T00:55:36.812Z,79.72
2019-01-23T00:58:05.743Z,79.69
2019-01-23T01:00:34.665Z,78.63
2019-01-23T01:03:03.622Z,79.85
2019-01-23T01:05:32.568Z,79.86
2019-01-23T01:08:01.501Z,79.71
2019-01-23T01:10:30.480Z,80.08
2019-01-23T01:12:59.418Z,80.47
2019-01-23T01:15:28.349Z,80.87
2019-01-23T01:17:57.271Z,80.45
2019-01-23T01:20:26.218Z,80.46
2019-01-23T01:22:55.136Z,80.54
2019-01-23T01:25:24.072Z,80.60
2019-01-23T01:27:52.998Z,80.35
2019-01-23T01:30:23.067Z,80.55
2019-01-23T01:32:52.004Z,79.56
2019-01-23T01:35:20.910Z,80.02
2019-01-23T01:37:49.856Z,79.94
2019-01-23T01:40:18.865Z,78.94
2019-01-23T01:42:47.790Z,79.53
2019-01-23T01:45:16.900Z,79.66
2019-01-23T01:47:45.805Z,79.75
2019-01-23T01:50:16.751Z,79.61
2019-01-23T01:52:45.675Z,79.39
2019-01-23T01:55:14.610Z,79.57
2019-01-23T01:57:43.534Z,79.56
2019-01-23T02:00:20.501Z,79.82
2019-01-23T02:02:49.426Z,79.56
2019-01-23T02:05:18.488Z,79.49
2019-01-23T02:07:47.399Z,79.19
2019-01-23T02:10:18.235Z,79.46
2019-01-23T02:12:47.170Z,79.11
2019-01-23T02:15:16.110Z,79.19
2019-01-23T02:17:45.059Z,78.96
2019-01-23T02:20:16.531Z,79.40
2019-01-23T02:22:45.446Z,79.54
2019-01-23T02:25:14.400Z,79.36
2019-01-23T02:27:43.613Z,79.18
2019-01-23T02:30:13.319Z,79.16
2019-01-23T02:32:42.252Z,79.00
2019-01-23T02:35:11.210Z,79.03
2019-01-23T02:37:40.145Z,78.66
2019-01-23T02:40:12.475Z,78.77
2019-01-23T02:42:41.420Z,79.06
2019-01-23T02:45:10.441Z,78.90
2019-01-23T02:47:39.353Z,79.02
2019-01-23T02:50:08.326Z,79.25
2019-01-23T02:52:37.251Z,79.22
2019-01-23T02:55:07.287Z,79.75
2019-01-23T02:57:36.214Z,79.37
2019-01-23T03:00:07.467Z,79.22
2019-01-23T03:02:36.412Z,79.10
2019-01-23T03:05:07.381Z,78.67
2019-01-23T03:07:36.318Z,78.73
2019-01-23T03:10:06.658Z,78.60
2019-01-23T03:12:35.560Z,78.89
2019-01-23T03:15:05.823Z,79.08
2019-01-23T03:17:34.735Z,79.14
2019-01-23T03:20:03.804Z,78.93
2019-01-23T03:22:32.732Z,78.85
2019-01-23T03:25:01.668Z,78.98
2019-01-23T03:27:30.601Z,79.02
2019-01-23T03:29:59.550Z,78.73
2019-01-23T03:32:28.457Z,78.69
2019-01-23T03:34:57.390Z,78.77
2019-01-23T03:37:26.323Z,77.87
2019-01-23T03:39:55.262Z,78.44
2019-01-23T03:42:24.194Z,78.17
2019-01-23T03:44:53.113Z,78.15
2019-01-23T03:47:22.042Z,78.18
2019-01-23T03:49:51.017Z,78.14
2019-01-23T03:52:19.883Z,78.23
2019-01-23T03:54:48.786Z,78.17
2019-01-23T03:57:17.719Z,78.46
2019-01-23T03:59:46.648Z,78.19
2019-01-23T04:02:15.609Z,78.20
2019-01-23T04:04:44.574Z,78.18
2019-01-23T04:07:13.428Z,78.08
2019-01-23T04:09:42.373Z,78.36
2019-01-23T04:12:11.322Z,78.06
2019-01-23T04:14:40.215Z,78.15
2019-01-23T04:17:09.156Z,78.33
2019-01-23T04:19:38.110Z,77.26
2019-01-23T04:22:06.905Z,78.32
2019-01-23T04:24:35.792Z,78.27
2019-01-23T04:27:04.687Z,78.31
2019-01-23T04:29:39.480Z,79.05
2019-01-23T04:32:02.483Z,78.41
2019-01-23T04:34:31.348Z,78.30
2019-01-23T04:37:00.208Z,78.45
2019-01-23T04:39:29.073Z,78.16
2019-01-23T04:41:57.953Z,78.14
2019-01-23T04:44:26.851Z,78.13
2019-01-23T04:46:55.711Z,77.98
2019-01-23T04:49:24.577Z,78.48
2019-01-23T04:52:05.027Z,78.83
2019-01-23T04:54:33.879Z,78.84
2019-01-23T04:57:02.775Z,78.66
2019-01-23T04:59:31.624Z,78.46
2019-01-23T05:02:00.534Z,78.47
2019-01-23T05:04:29.407Z,78.49
2019-01-23T05:06:58.304Z,78.72
2019-01-23T05:09:27.202Z,77.42
2019-01-23T05:11:56.088Z,76.87
2019-01-23T05:14:24.962Z,77.91
2019-01-23T05:16:53.849Z,78.35
2019-01-23T05:19:22.735Z,77.65
2019-01-23T05:21:51.632Z,77.57
2019-01-23T05:24:20.513Z,76.25
2019-01-23T05:26:49.374Z,75.72
2019-01-23T05:29:18.266Z,76.02
2019-01-23T05:31:47.116Z,76.83
2019-01-23T05:34:15.999Z,76.88
2019-01-23T05:36:44.855Z,77.15
2019-01-23T05:39:13.732Z,77.46
2019-01-23T05:41:42.575Z,77.78
2019-01-23T05:44:11.485Z,77.42
2019-01-23T05:46:40.349Z,77.15
2019-01-23T05:49:09.223Z,77.11
2019-01-23T05:51:38.118Z,77.40
2019-01-23T05:54:07.033Z,77.20
2019-01-23T05:56:35.923Z,76.73
2019-01-23T05:59:04.890Z,77.39
2019-01-23T06:01:33.747Z,77.16
2019-01-23T06:04:02.618Z,77.17
2019-01-23T06:06:31.501Z,77.48
2019-01-23T06:09:00.363Z,77.24
2019-01-23T06:11:29.265Z,77.32
2019-01-23T06:13:58.159Z,76.27
2019-01-23T06:16:27.040Z,77.14
2019-01-23T06:18:55.914Z,76.84
2019-01-23T06:21:24.800Z,76.78
2019-01-23T06:23:53.674Z,76.69
2019-01-23T06:26:22.518Z,76.75
2019-01-23T06:28:51.410Z,76.63
2019-01-23T06:31:20.360Z,76.57
2019-01-23T06:33:49.238Z,76.48
2019-01-23T06:36:18.108Z,76.72
2019-01-23T06:38:46.970Z,77.00
2019-01-23T06:41:15.889Z,77.78
2019-01-23T06:43:44.817Z,77.43
2019-01-23T06:46:13.713Z,77.44
2019-01-23T06:48:42.612Z,77.41
2019-01-23T06:51:11.521Z,76.70
2019-01-23T06:53:40.402Z,76.07
2019-01-23T06:56:09.336Z,75.76
2019-01-23T06:58:38.181Z,74.54
2019-01-23T07:01:07.133Z,75.55
2019-01-23T07:03:35.984Z,75.68
2019-01-23T07:06:04.877Z,75.55
2019-01-23T07:08:33.758Z,75.49
2019-01-23T07:11:02.864Z,75.36
2019-01-23T07:13:31.960Z,75.84
2019-01-23T07:16:00.849Z,75.76
2019-01-23T07:18:29.729Z,76.05
2019-01-23T07:20:58.643Z,77.25
2019-01-23T07:23:27.535Z,76.63
2019-01-23T07:25:56.477Z,77.03
2019-01-23T07:28:25.343Z,77.14
2019-01-23T07:30:54.239Z,77.32
2019-01-23T07:33:23.132Z,77.56
2019-01-23T07:35:52.504Z,77.61
2019-01-23T07:38:21.378Z,78.22
2019-01-23T07:40:50.282Z,78.09
2019-01-23T07:43:19.146Z,77.87
2019-01-23T07:45:48.044Z,77.83
2019-01-23T07:48:17.094Z,78.00
2019-01-23T07:50:45.795Z,77.75
2019-01-23T07:53:14.684Z,77.53
2019-01-23T07:55:43.557Z,77.39
2019-01-23T07:58:12.432Z,76.11
2019-01-23T08:00:41.287Z,76.99
2019-01-23T08:03:10.267Z,76.83
2019-01-23T08:05:39.113Z,76.34
2019-01-23T08:08:07.994Z,76.10
2019-01-23T08:10:36.876Z,76.72
2019-01-23T08:13:05.885Z,76.25
2019-01-23T08:15:36.071Z,75.96
2019-01-23T08:18:05.535Z,76.30
2019-01-23T08:20:34.489Z,76.08
2019-01-23T08:23:03.346Z,76.45
2019-01-23T08:25:32.221Z,76.56
2019-01-23T08:28:01.126Z,75.91
2019-01-23T08:30:29.992Z,76.08
2019-01-23T08:32:58.882Z,76.60
2019-01-23T08:35:27.745Z,76.40
2019-01-23T08:37:56.695Z,75.98
2019-01-23T08:40:25.502Z,76.06
2019-01-23T08:42:54.385Z,75.84
2019-01-23T08:45:23.255Z,75.68
2019-01-23T08:47:52.141Z,75.36
2019-01-23T08:50:41.729Z,75.37
2019-01-23T08:53:10.623Z,74.85
2019-01-23T08:55:39.497Z,75.96
2019-01-23T08:58:08.563Z,75.53
2019-01-23T09:00:37.428Z,75.33
2019-01-23T09:03:06.655Z,75.64
2019-01-23T09:05:35.862Z,75.27
2019-01-23T09:08:06.178Z,74.79
2019-01-23T09:10:35.263Z,74.84
2019-01-23T09:13:04.695Z,75.20
2019-01-23T09:15:36.241Z,74.65
2019-01-23T09:18:07.070Z,74.15
2019-01-23T09:20:35.274Z,74.16
2019-01-23T09:23:04.993Z,74.81
2019-01-23T09:25:37.128Z,74.49
2019-01-23T09:28:08.741Z,74.23
2019-01-23T09:30:55.802Z,74.11
2019-01-23T09:33:33.102Z,74.47
2019-01-23T09:36:49.062Z,72.95
2019-01-23T09:40:02.912Z,73.48
2019-01-23T09:43:13.495Z,74.25
2019-01-23T09:46:23.084Z,74.05
2019-01-23T09:49:29.530Z,72.72
2019-01-23T09:52:22.249Z,72.87
2019-01-23T09:54:54.381Z,72.76
2019-01-23T09:57:20.985Z,72.83
2019-01-23T09:59:50.067Z,73.15
2019-01-23T10:02:21.633Z,72.64
2019-01-23T10:04:50.783Z,72.38
2019-01-23T10:07:22.519Z,72.14
2019-01-23T10:09:56.640Z,72.06
2019-01-23T10:12:23.539Z,71.36
2019-01-23T10:14:58.433Z,71.34
2019-01-23T10:17:27.601Z,71.66
2019-01-23T10:19:58.429Z,71.71
2019-01-23T10:22:25.971Z,71.97
2019-01-23T10:24:55.163Z,72.58
2019-01-23T10:27:24.283Z,71.98
2019-01-23T10:29:53.619Z,72.55
2019-01-23T10:32:25.906Z,71.92
2019-01-23T10:34:57.577Z,72.32
2019-01-23T10:37:29.408Z,72.13
2019-01-23T10:39:58.606Z,72.59
2019-01-23T10:42:27.751Z,72.90
2019-01-23T10:44:56.992Z,72.09
2019-01-23T10:47:31.450Z,70.00
2019-01-23T10:50:04.821Z,70.93
2019-01-23T10:52:34.048Z,70.44
2019-01-23T10:55:03.484Z,70.97
2019-01-23T10:57:33.043Z,70.85
2019-01-23T11:00:02.121Z,70.29
2019-01-23T11:02:31.218Z,70.93
2019-01-23T11:05:00.299Z,71.00
2019-01-23T11:07:31.446Z,70.90
2019-01-23T11:10:00.855Z,72.67
2019-01-23T11:12:30.114Z,72.45
2019-01-23T11:14:59.550Z,72.22
2019-01-23T11:17:28.819Z,72.29
2019-01-23T11:19:58.268Z,72.16
2019-01-23T11:22:27.292Z,72.13
2019-01-23T11:24:56.485Z,71.83
2019-01-23T11:27:33.249Z,71.44
2019-01-23T11:30:02.387Z,71.28
2019-01-23T11:32:33.795Z,71.42
2019-01-23T11:35:03.542Z,71.65
2019-01-23T11:37:33.327Z,71.76
2019-01-23T11:40:07.048Z,71.66
2019-01-23T11:42:36.394Z,71.76
2019-01-23T11:45:06.855Z,71.39
2019-01-23T11:47:35.874Z,71.46
2019-01-23T11:50:06.589Z,71.18
2019-01-23T11:52:38.009Z,70.35
2019-01-23T11:55:08.040Z,70.00
2019-01-23T11:57:38.197Z,70.82
2019-01-23T12:00:11.199Z,70.24
2019-01-23T12:02:44.152Z,69.88
2019-01-23T12:05:14.805Z,69.35
2019-01-23T12:07:44.255Z,68.25
2019-01-23T12:10:18.853Z,69.24
2019-01-23T12:12:50.602Z,70.26
2019-01-23T12:15:22.789Z,69.92
2019-01-23T12:17:54.578Z,69.29
2019-01-23T12:20:24.063Z,68.56
2019-01-23T12:22:55.362Z,67.83
2019-01-23T12:25:25.560Z,67.94
2019-01-23T12:27:54.787Z,67.76
2019-01-23T12:30:26.555Z,68.02
2019-01-23T12:32:55.671Z,68.55
2019-01-23T12:35:24.691Z,69.53
2019-01-23T12:37:54.138Z,70.19
2019-01-23T12:40:23.490Z,70.10
2019-01-23T12:42:52.718Z,70.55
2019-01-23T12:45:24.026Z,71.54
2019-01-23T12:47:53.230Z,71.41
2019-01-23T12:50:28.871Z,71.72
2019-01-23T12:52:57.755Z,71.71
2019-01-23T12:55:26.624Z,71.55
2019-01-23T12:57:55.608Z,72.21
2019-01-23T13:00:26.476Z,72.50
2019-01-23T13:02:55.436Z,71.96
2019-01-23T13:05:24.378Z,71.46
2019-01-23T13:07:53.216Z,69.64
2019-01-23T13:10:22.218Z,70.80
2019-01-23T13:12:52.145Z,71.37
2019-01-23T13:15:24.461Z,71.36
2019-01-23T13:17:54.453Z,71.27
2019-01-23T13:20:24.923Z,71.30
2019-01-23T13:22:55.228Z,71.30
2019-01-23T13:25:25.500Z,69.98
2019-01-23T13:27:54.714Z,71.25
2019-01-23T13:30:25.023Z,70.94
2019-01-23T13:32:53.902Z,71.01
2019-01-23T13:35:25.258Z,71.04
2019-01-23T13:37:54.334Z,70.46
2019-01-23T13:40:25.366Z,72.01
2019-01-23T13:42:54.265Z,72.09
2019-01-23T13:45:23.154Z,71.91
2019-01-23T13:47:52.000Z,71.77
2019-01-23T13:50:20.879Z,71.73
2019-01-23T13:52:49.741Z,71.99
2019-01-23T13:55:19.336Z,72.65
2019-01-23T13:57:48.282Z,71.96
2019-01-23T14:00:31.653Z,72.05
2019-01-23T14:03:00.566Z,71.56
2019-01-23T14:05:29.473Z,72.99
2019-01-23T14:07:58.384Z,72.49
2019-01-23T14:10:27.316Z,71.99
2019-01-23T14:12:56.211Z,72.43
2019-01-23T14:15:31.100Z,72.01
2019-01-23T14:18:00.043Z,72.86
2019-01-23T14:20:28.913Z,72.46
2019-01-23T14:22:57.789Z,72.45
2019-01-23T14:25:26.706Z,73.07
2019-01-23T14:27:55.638Z,73.82
2019-01-23T14:30:33.040Z,73.68
2019-01-23T14:33:02.202Z,73.81
2019-01-23T14:35:32.142Z,73.46
2019-01-23T14:38:01.152Z,73.42
2019-01-23T14:40:29.962Z,72.74
2019-01-23T14:42:58.818Z,73.47
2019-01-23T14:45:27.730Z,73.24
2019-01-23T14:47:56.630Z,72.84
2019-01-23T14:50:25.536Z,73.10
2019-01-23T14:52:54.425Z,72.58
2019-01-23T14:55:23.353Z,73.16
2019-01-23T14:57:52.297Z,74.43
2019-01-23T15:00:25.937Z,72.41
2019-01-23T15:02:54.811Z,71.43
2019-01-23T15:05:23.746Z,73.50
2019-01-23T15:07:52.679Z,73.49
2019-01-23T15:10:26.428Z,73.89
2019-01-23T15:12:55.377Z,73.55
2019-01-23T15:15:24.293Z,74.27
2019-01-23T15:17:53.735Z,74.13
2019-01-23T15:20:31.123Z,72.80
2019-01-23T15:23:00.012Z,74.86
2019-01-23T15:25:28.901Z,75.08
2019-01-23T15:27:57.802Z,75.44
2019-01-23T15:30:26.721Z,73.18
2019-01-23T15:32:55.613Z,74.25
2019-01-23T15:35:24.487Z,74.74
2019-01-23T15:37:53.444Z,75.07
2019-01-23T15:40:24.681Z,75.31
2019-01-23T15:42:53.623Z,76.13
2019-01-23T15:45:22.568Z,73.33
2019-01-23T15:47:51.482Z,75.01
2019-01-23T15:50:22.109Z,75.20
2019-01-23T15:52:51.082Z,75.13
2019-01-23T15:55:21.163Z,75.92
2019-01-23T15:57:50.067Z,73.67
2019-01-23T16:00:26.868Z,74.38
2019-01-23T16:02:55.759Z,75.42
2019-01-23T16:05:24.784Z,75.12
2019-01-23T16:07:53.688Z,72.78
2019-01-23T16:10:24.178Z,71.45
2019-01-23T16:12:53.162Z,71.75
2019-01-23T16:15:23.179Z,73.19
2019-01-23T16:17:52.055Z,74.12
2019-01-23T16:20:20.941Z,74.61
2019-01-23T16:22:49.791Z,73.84
2019-01-23T16:25:18.677Z,74.06
2019-01-23T16:27:47.578Z,74.88
2019-01-23T16:30:22.405Z,74.47
2019-01-23T16:32:51.263Z,75.17
2019-01-23T16:35:20.270Z,74.97
2019-01-23T16:37:49.367Z,75.24
2019-01-23T16:40:18.259Z,75.28
2019-01-23T16:42:47.162Z,73.90
2019-01-23T16:45:16.469Z,74.48
2019-01-23T16:47:45.727Z,74.21
2019-01-23T16:50:16.789Z,74.63
2019-01-23T16:52:45.718Z,74.81
2019-01-23T16:55:14.610Z,74.58
2019-01-23T16:57:43.505Z,75.13
2019-01-23T17:00:13.964Z,74.34
2019-01-23T17:02:42.920Z,74.14
2019-01-23T17:05:15.090Z,73.80
2019-01-23T17:07:44.352Z,73.35
2019-01-23T17:10:15.582Z,73.88
2019-01-23T17:12:44.478Z,73.18
2019-01-23T17:15:13.389Z,70.79
2019-01-23T17:17:42.296Z,72.01
2019-01-23T17:20:17.274Z,72.67
2019-01-23T17:22:46.157Z,72.96
2019-01-23T17:25:15.022Z,72.86
2019-01-23T17:27:43.919Z,72.60
2019-01-23T17:30:13.268Z,72.98
2019-01-23T17:32:45.797Z,73.49
2019-01-23T17:35:11.840Z,74.15
2019-01-23T17:37:40.704Z,73.49
2019-01-23T17:40:11.470Z,73.81
2019-01-23T17:42:40.411Z,74.01
2019-01-23T17:45:23.539Z,74.59
2019-01-23T17:47:52.507Z,73.64
2019-01-23T17:50:21.817Z,73.25
2019-01-23T17:52:50.876Z,73.53
2019-01-23T17:55:28.287Z,72.85
2019-01-23T17:57:57.569Z,72.78
2019-01-23T18:00:27.965Z,72.92
2019-01-23T18:02:56.861Z,73.04
2019-01-23T18:05:25.772Z,72.37
2019-01-23T18:07:55.520Z,72.06
2019-01-23T18:10:23.545Z,72.93
2019-01-23T18:12:52.421Z,71.55
2019-01-23T18:15:22.993Z,72.70
2019-01-23T18:17:51.905Z,71.92
2019-01-23T18:20:23.100Z,72.86
2019-01-23T18:22:51.984Z,72.85
2019-01-23T18:25:20.850Z,72.87
2019-01-23T18:27:49.746Z,73.11
2019-01-23T18:30:34.190Z,72.55
2019-01-23T18:33:03.990Z,71.37
2019-01-23T18:35:49.018Z,70.78
2019-01-23T18:38:40.026Z,72.01
2019-01-23T18:41:45.606Z,68.07
2019-01-23T18:44:42.968Z,67.83
2019-01-23T18:47:37.691Z,66.96
2019-01-23T18:50:34.619Z,68.97
2019-01-23T18:53:03.505Z,70.10
2019-01-23T18:55:32.474Z,70.13
2019-01-23T18:58:01.373Z,70.35
2019-01-23T19:00:30.248Z,70.82
2019-01-23T19:02:59.159Z,70.27
2019-01-23T19:05:28.029Z,68.82
2019-01-23T19:07:56.940Z,70.48
2019-01-23T19:10:25.825Z,69.94
2019-01-23T19:12:54.730Z,70.19
2019-01-23T19:15:23.600Z,69.98
2019-01-23T19:17:52.493Z,69.31
2019-01-23T19:20:21.413Z,69.01
2019-01-23T19:22:50.289Z,68.78
2019-01-23T19:25:19.198Z,68.79
2019-01-23T19:27:48.107Z,69.60
2019-01-23T19:30:19.908Z,69.77
2019-01-23T19:32:48.802Z,69.76
2019-01-23T19:35:17.661Z,69.34
2019-01-23T19:37:46.566Z,69.53
2019-01-23T19:40:15.446Z,70.96
2019-01-23T19:42:44.348Z,70.61
2019-01-23T19:45:16.414Z,69.99
2019-01-23T19:47:45.373Z,69.66
2019-01-23T19:50:14.338Z,69.68
2019-01-23T19:52:43.207Z,69.64
2019-01-23T19:55:13.823Z,66.87
2019-01-23T19:57:42.416Z,68.68
2019-01-23T20:00:17.008Z,68.59
2019-01-23T20:02:45.903Z,66.66
2019-01-23T20:05:16.870Z,68.16
2019-01-23T20:07:45.771Z,68.39
2019-01-23T20:10:17.230Z,67.25
2019-01-23T20:12:44.988Z,67.43
2019-01-23T20:15:14.993Z,68.52
2019-01-23T20:17:43.925Z,69.56
2019-01-23T20:20:14.660Z,70.77
2019-01-23T20:22:43.576Z,70.42
2019-01-23T20:25:18.490Z,69.74
2019-01-23T20:27:47.400Z,70.27
2019-01-23T20:30:25.457Z,70.07
2019-01-23T20:32:54.345Z,69.42
2019-01-23T20:35:23.269Z,69.62
2019-01-23T20:37:52.147Z,68.35
2019-01-23T20:40:21.020Z,70.45
2019-01-23T20:42:50.332Z,69.88
2019-01-23T20:45:19.195Z,69.84
2019-01-23T20:47:48.093Z,69.09
2019-01-23T20:50:19.936Z,66.98
2019-01-23T20:52:48.802Z,66.16
2019-01-23T20:55:17.652Z,68.25
2019-01-23T20:57:46.548Z,68.12
2019-01-23T21:00:26.807Z,67.84
2019-01-23T21:02:55.685Z,68.20
2019-01-23T21:05:24.558Z,68.43
2019-01-23T21:07:53.454Z,68.32
2019-01-23T21:10:22.620Z,67.49
2019-01-23T21:12:51.536Z,67.52
2019-01-23T21:15:22.782Z,67.34
2019-01-23T21:17:51.654Z,67.60
2019-01-23T21:20:20.546Z,65.24
2019-01-23T21:22:49.457Z,67.37
2019-01-23T21:25:18.375Z,68.06
2019-01-23T21:27:47.270Z,66.88
2019-01-23T21:30:18.584Z,68.17
2019-01-23T21:32:47.487Z,68.62
2019-01-23T21:35:16.548Z,67.08
2019-01-23T21:37:45.458Z,65.32
2019-01-23T21:40:19.789Z,67.14
2019-01-23T21:42:48.685Z,68.12
2019-01-23T21:45:17.569Z,66.47
2019-01-23T21:47:47.074Z,63.85
2019-01-23T21:50:17.721Z,63.08
2019-01-23T21:52:46.612Z,65.33
2019-01-23T21:55:16.922Z,66.71
2019-01-23T21:57:45.838Z,67.45
2019-01-23T22:00:18.351Z,66.00
2019-01-23T22:02:47.228Z,67.32
2019-01-23T22:05:16.137Z,66.58
2019-01-23T22:07:45.039Z,66.52
2019-01-23T22:10:13.980Z,67.66
2019-01-23T22:12:42.858Z,67.30
2019-01-23T22:15:13.887Z,67.07
2019-01-23T22:17:42.754Z,67.53
2019-01-23T22:20:13.940Z,68.06
2019-01-23T22:22:42.810Z,68.12
2019-01-23T22:25:13.050Z,67.45
2019-01-23T22:27:41.924Z,67.51
2019-01-23T22:30:14.002Z,67.46
2019-01-23T22:32:42.890Z,67.38
2019-01-23T22:35:11.793Z,67.54
2019-01-23T22:37:40.661Z,69.11
2019-01-23T22:40:10.486Z,69.38
2019-01-23T22:42:39.355Z,68.54
2019-01-23T22:45:10.314Z,68.34
2019-01-23T22:47:39.195Z,68.68
2019-01-23T22:50:11.057Z,69.04
2019-01-23T22:52:39.951Z,69.28
2019-01-23T22:55:09.357Z,66.91
2019-01-23T22:57:38.252Z,67.95
2019-01-23T23:00:38.725Z,68.13
2019-01-23T23:03:10.747Z,68.89
2019-01-23T23:05:39.654Z,68.53
2019-01-23T23:08:08.528Z,69.16
2019-01-23T23:10:37.418Z,70.30
2019-01-23T23:13:06.321Z,69.90
2019-01-23T23:15:35.223Z,69.14
2019-01-23T23:18:04.252Z,68.72
2019-01-23T23:20:33.117Z,68.48
2019-01-23T23:23:01.981Z,69.75
2019-01-23T23:25:30.883Z,68.62
2019-01-23T23:27:59.769Z,68.14
2019-01-23T23:30:28.634Z,69.23
2019-01-23T23:32:57.556Z,70.08
2019-01-23T23:35:26.441Z,67.30
2019-01-23T23:37:55.371Z,68.50
2019-01-23T23:40:24.232Z,68.17
2019-01-23T23:42:53.112Z,68.18
2019-01-23T23:45:22.009Z,68.47
2019-01-23T23:47:50.883Z,67.40
2019-01-23T23:50:19.763Z,66.73
2019-01-23T23:52:48.666Z,67.11
2019-01-23T23:55:17.533Z,67.41
2019-01-23T23:57:46.404Z,67.22
